SWR4WP LSZH-EDDL
Flight info
| Callsign | SWR4WP |
|---|---|
| Flight time | 0h 53m |
| Altitude | 30000 |
| Route | VEBIT T10 TORPA DCT EDOPI DCT GIVOR DCT SORAL DCT IBERA DCT DIK N853 ARCKY T853 NVO T857 BIKMU BIKMU1A |
| Aircraft | A359/H-SDE2E3GHIJ3J4J5LM1ORWXY/LB1D1 |
Departure
| Time | 2026-05-06 09:16 |
|---|---|
| Airport | Zürich Airport (LSZH) |
Arrival
| Time | 2026-05-06 10:09 |
|---|---|
| Airport | Düsseldorf Airport (EDDL) |
| Time | Latitude | Longitude | Altitude | Speed | Heading |
|---|---|---|---|---|---|
| 2026-05-06 08:56 | 47.45172 | 8.55899 | 1421 ft | 0 kts | 186° |
| 2026-05-06 09:04 | 47.45191 | 8.55902 | 1413 ft | 4 kts | 188° |
| 2026-05-06 09:04 | 47.45218 | 8.55910 | 1414 ft | 4 kts | 197° |
| 2026-05-06 09:05 | 47.45241 | 8.55926 | 1417 ft | 4 kts | 226° |
| 2026-05-06 09:05 | 47.45249 | 8.55947 | 1417 ft | 0 kts | 276° |
| 2026-05-06 09:07 | 47.45251 | 8.55920 | 1417 ft | 6 kts | 274° |
| 2026-05-06 09:08 | 47.45250 | 8.55820 | 1413 ft | 13 kts | 266° |
| 2026-05-06 09:08 | 47.45260 | 8.55672 | 1416 ft | 15 kts | 279° |
| 2026-05-06 09:08 | 47.45294 | 8.55517 | 1415 ft | 17 kts | 297° |
| 2026-05-06 09:08 | 47.45373 | 8.55389 | 1412 ft | 18 kts | 336° |
| 2026-05-06 09:09 | 47.45448 | 8.55340 | 1415 ft | 0 kts | 336° |
| 2026-05-06 09:10 | 47.45451 | 8.55338 | 1415 ft | 3 kts | 336° |
| 2026-05-06 09:11 | 47.45511 | 8.55298 | 1412 ft | 13 kts | 336° |
| 2026-05-06 09:11 | 47.45600 | 8.55237 | 1411 ft | 15 kts | 334° |
| 2026-05-06 09:11 | 47.45701 | 8.55164 | 1408 ft | 17 kts | 334° |
| 2026-05-06 09:11 | 47.45816 | 8.55083 | 1408 ft | 19 kts | 334° |
| 2026-05-06 09:12 | 47.45938 | 8.54996 | 1407 ft | 20 kts | 334° |
| 2026-05-06 09:12 | 47.46074 | 8.54900 | 1404 ft | 23 kts | 334° |
| 2026-05-06 09:12 | 47.46220 | 8.54797 | 1405 ft | 24 kts | 335° |
| 2026-05-06 09:12 | 47.46373 | 8.54692 | 1401 ft | 24 kts | 335° |
| 2026-05-06 09:13 | 47.46523 | 8.54593 | 1398 ft | 23 kts | 336° |
| 2026-05-06 09:13 | 47.46672 | 8.54493 | 1400 ft | 25 kts | 335° |
| 2026-05-06 09:13 | 47.46821 | 8.54397 | 1384 ft | 22 kts | 337° |
| 2026-05-06 09:13 | 47.46962 | 8.54304 | 1385 ft | 22 kts | 335° |
| 2026-05-06 09:14 | 47.47098 | 8.54211 | 1402 ft | 21 kts | 335° |
| 2026-05-06 09:14 | 47.47231 | 8.54121 | 1402 ft | 21 kts | 335° |
| 2026-05-06 09:14 | 47.47360 | 8.54033 | 1403 ft | 19 kts | 335° |
| 2026-05-06 09:14 | 47.47475 | 8.53954 | 1409 ft | 18 kts | 335° |
| 2026-05-06 09:15 | 47.47575 | 8.53873 | 1408 ft | 16 kts | 317° |
| 2026-05-06 09:15 | 47.47599 | 8.53726 | 1413 ft | 15 kts | 251° |
| 2026-05-06 09:15 | 47.47562 | 8.53648 | 1414 ft | 12 kts | 220° |
| 2026-05-06 09:15 | 47.47482 | 8.53654 | 1410 ft | 14 kts | 154° |
| 2026-05-06 09:16 | 47.47276 | 8.53799 | 1406 ft | 69 kts | 155° |
| 2026-05-06 09:16 | 47.46607 | 8.54262 | 1386 ft | 140 kts | 155° |
| 2026-05-06 09:16 | 47.45589 | 8.54979 | 1719 ft | 172 kts | 154° |
| 2026-05-06 09:16 | 47.44524 | 8.55716 | 2666 ft | 167 kts | 156° |
| 2026-05-06 09:17 | 47.43476 | 8.56614 | 3149 ft | 190 kts | 136° |
| 2026-05-06 09:17 | 47.42957 | 8.58536 | 3457 ft | 219 kts | 89° |
| 2026-05-06 09:17 | 47.43515 | 8.60596 | 4189 ft | 222 kts | 46° |
| 2026-05-06 09:17 | 47.44857 | 8.61613 | 4969 ft | 221 kts | 5° |
| 2026-05-06 09:18 | 47.46329 | 8.61098 | 5717 ft | 223 kts | 324° |
| 2026-05-06 09:18 | 47.47472 | 8.59474 | 6276 ft | 242 kts | 310° |
| 2026-05-06 09:18 | 47.48367 | 8.57232 | 6521 ft | 265 kts | 284° |
| 2026-05-06 09:18 | 47.48311 | 8.54520 | 7043 ft | 270 kts | 249° |
| 2026-05-06 09:19 | 47.47255 | 8.52251 | 7755 ft | 271 kts | 223° |
| 2026-05-06 09:19 | 47.45894 | 8.50300 | 8538 ft | 275 kts | 224° |
| 2026-05-06 09:19 | 47.44592 | 8.48212 | 9347 ft | 278 kts | 228° |
| 2026-05-06 09:19 | 47.43408 | 8.45930 | 10073 ft | 284 kts | 232° |
| 2026-05-06 09:20 | 47.42352 | 8.43364 | 10462 ft | 304 kts | 239° |
| 2026-05-06 09:20 | 47.41205 | 8.40627 | 11118 ft | 319 kts | 232° |
| 2026-05-06 09:20 | 47.39885 | 8.37953 | 12161 ft | 323 kts | 232° |
| 2026-05-06 09:20 | 47.38719 | 8.35106 | 13267 ft | 327 kts | 240° |
| 2026-05-06 09:21 | 47.37754 | 8.32039 | 14237 ft | 333 kts | 243° |
| 2026-05-06 09:21 | 47.36755 | 8.28875 | 14791 ft | 347 kts | 243° |
| 2026-05-06 09:21 | 47.35683 | 8.25642 | 15253 ft | 354 kts | 242° |
| 2026-05-06 09:21 | 47.34571 | 8.22387 | 15840 ft | 357 kts | 242° |
| 2026-05-06 09:22 | 47.33435 | 8.19125 | 16432 ft | 359 kts | 241° |
| 2026-05-06 09:22 | 47.32276 | 8.15840 | 17134 ft | 363 kts | 240° |
| 2026-05-06 09:22 | 47.31105 | 8.12527 | 18114 ft | 364 kts | 240° |
| 2026-05-06 09:22 | 47.29936 | 8.09225 | 19050 ft | 364 kts | 240° |
| 2026-05-06 09:23 | 47.28764 | 8.05923 | 19969 ft | 364 kts | 240° |
| 2026-05-06 09:23 | 47.27748 | 8.02477 | 20802 ft | 370 kts | 249° |
| 2026-05-06 09:23 | 47.27251 | 7.98724 | 21598 ft | 379 kts | 263° |
| 2026-05-06 09:23 | 47.27321 | 7.94810 | 22418 ft | 386 kts | 271° |
| 2026-05-06 09:24 | 47.27616 | 7.90850 | 23219 ft | 392 kts | 274° |
| 2026-05-06 09:24 | 47.28014 | 7.86855 | 23907 ft | 396 kts | 275° |
| 2026-05-06 09:24 | 47.28451 | 7.82830 | 24613 ft | 399 kts | 275° |
| 2026-05-06 09:24 | 47.28889 | 7.78784 | 25312 ft | 401 kts | 274° |
| 2026-05-06 09:25 | 47.29312 | 7.74717 | 26005 ft | 403 kts | 273° |
| 2026-05-06 09:25 | 47.29721 | 7.70617 | 26688 ft | 406 kts | 272° |
| 2026-05-06 09:25 | 47.30120 | 7.66486 | 27371 ft | 409 kts | 271° |
| 2026-05-06 09:25 | 47.30688 | 7.62342 | 28023 ft | 417 kts | 279° |
| 2026-05-06 09:26 | 47.31485 | 7.58212 | 28708 ft | 421 kts | 279° |
| 2026-05-06 09:26 | 47.32345 | 7.54063 | 29345 ft | 425 kts | 280° |
| 2026-05-06 09:26 | 47.33247 | 7.49881 | 29761 ft | 430 kts | 280° |
| 2026-05-06 09:26 | 47.34158 | 7.45740 | 29851 ft | 417 kts | 281° |
| 2026-05-06 09:27 | 47.35049 | 7.41751 | 29842 ft | 402 kts | 281° |
| 2026-05-06 09:27 | 47.36792 | 7.33736 | 29842 ft | 426 kts | 281° |
| 2026-05-06 09:27 | 47.37697 | 7.29479 | 29838 ft | 443 kts | 282° |
| 2026-05-06 09:28 | 47.38636 | 7.25057 | 29831 ft | 460 kts | 282° |
| 2026-05-06 09:28 | 47.40550 | 7.15935 | 29830 ft | 465 kts | 278° |
| 2026-05-06 09:29 | 47.42032 | 7.06659 | 29842 ft | 464 kts | 278° |
| 2026-05-06 09:29 | 47.43410 | 6.97319 | 29829 ft | 468 kts | 277° |
| 2026-05-06 09:30 | 47.44770 | 6.87917 | 29829 ft | 468 kts | 277° |
| 2026-05-06 09:30 | 47.46414 | 6.78579 | 29831 ft | 474 kts | 287° |
| 2026-05-06 09:31 | 47.49847 | 6.70173 | 29831 ft | 486 kts | 308° |
| 2026-05-06 09:31 | 47.52329 | 6.66746 | 29838 ft | 491 kts | 320° |
| 2026-05-06 09:31 | 47.55239 | 6.64069 | 29830 ft | 494 kts | 332° |
| 2026-05-06 09:31 | 47.58457 | 6.62272 | 29831 ft | 496 kts | 344° |
| 2026-05-06 09:32 | 47.61864 | 6.61427 | 29818 ft | 497 kts | 356° |
| 2026-05-06 09:32 | 47.68726 | 6.61343 | 29833 ft | 497 kts | 354° |
| 2026-05-06 09:33 | 47.75608 | 6.60256 | 29828 ft | 498 kts | 353° |
| 2026-05-06 09:33 | 47.82478 | 6.58952 | 29826 ft | 497 kts | 352° |
| 2026-05-06 09:34 | 47.89345 | 6.57555 | 29827 ft | 499 kts | 352° |
| 2026-05-06 09:34 | 47.96223 | 6.56109 | 29824 ft | 499 kts | 351° |
| 2026-05-06 09:35 | 48.03080 | 6.54445 | 29821 ft | 499 kts | 350° |
| 2026-05-06 09:35 | 48.09936 | 6.52742 | 29818 ft | 500 kts | 350° |
| 2026-05-06 09:36 | 48.16811 | 6.51067 | 29814 ft | 500 kts | 350° |
| 2026-05-06 09:36 | 48.23691 | 6.49407 | 29814 ft | 500 kts | 350° |
| 2026-05-06 09:37 | 48.30573 | 6.47745 | 29814 ft | 502 kts | 350° |
| 2026-05-06 09:37 | 48.37478 | 6.46073 | 29830 ft | 503 kts | 350° |
| 2026-05-06 09:38 | 48.44386 | 6.44394 | 29811 ft | 502 kts | 350° |
| 2026-05-06 09:38 | 48.51284 | 6.42713 | 29807 ft | 502 kts | 349° |
| 2026-05-06 09:39 | 48.58182 | 6.41027 | 29801 ft | 502 kts | 349° |
| 2026-05-06 09:39 | 48.65095 | 6.39500 | 29802 ft | 503 kts | 356° |
| 2026-05-06 09:40 | 48.71659 | 6.39689 | 29799 ft | 503 kts | 3° |
| 2026-05-06 09:40 | 48.82119 | 6.40728 | 29801 ft | 503 kts | 4° |
| 2026-05-06 09:41 | 48.89095 | 6.41478 | 29799 ft | 503 kts | 4° |
| 2026-05-06 09:41 | 48.96078 | 6.42204 | 29800 ft | 503 kts | 3° |
| 2026-05-06 09:42 | 49.03070 | 6.42918 | 29801 ft | 504 kts | 3° |
| 2026-05-06 09:42 | 49.10067 | 6.43420 | 29798 ft | 503 kts | 356° |
| 2026-05-06 09:43 | 49.16915 | 6.41549 | 29797 ft | 499 kts | 344° |
| 2026-05-06 09:43 | 49.23627 | 6.38865 | 29787 ft | 498 kts | 342° |
| 2026-05-06 09:44 | 49.30257 | 6.36071 | 29781 ft | 497 kts | 342° |
| 2026-05-06 09:44 | 49.36978 | 6.33256 | 29781 ft | 497 kts | 342° |
| 2026-05-06 09:45 | 49.43643 | 6.30488 | 29778 ft | 496 kts | 342° |
| 2026-05-06 09:45 | 49.50257 | 6.27744 | 29773 ft | 496 kts | 342° |
| 2026-05-06 09:46 | 49.56877 | 6.25024 | 29777 ft | 489 kts | 342° |
| 2026-05-06 09:46 | 49.63423 | 6.22349 | 29773 ft | 483 kts | 341° |
| 2026-05-06 09:47 | 49.66662 | 6.21022 | 29602 ft | 480 kts | 341° |
| 2026-05-06 09:47 | 49.69880 | 6.19701 | 29315 ft | 477 kts | 341° |
| 2026-05-06 09:47 | 49.73087 | 6.18381 | 29032 ft | 476 kts | 341° |
| 2026-05-06 09:47 | 49.76278 | 6.17064 | 28748 ft | 473 kts | 341° |
| 2026-05-06 09:48 | 49.79428 | 6.15765 | 28291 ft | 465 kts | 341° |
| 2026-05-06 09:48 | 49.82534 | 6.14481 | 27744 ft | 459 kts | 342° |
| 2026-05-06 09:48 | 49.85638 | 6.13409 | 27169 ft | 457 kts | 350° |
| 2026-05-06 09:48 | 49.88794 | 6.13059 | 26604 ft | 453 kts | 355° |
| 2026-05-06 09:49 | 49.91936 | 6.12929 | 26020 ft | 450 kts | 357° |
| 2026-05-06 09:49 | 49.95049 | 6.12911 | 25468 ft | 446 kts | 358° |
| 2026-05-06 09:49 | 49.98142 | 6.12945 | 24903 ft | 443 kts | 358° |
| 2026-05-06 09:49 | 50.01210 | 6.12994 | 24323 ft | 439 kts | 359° |
| 2026-05-06 09:50 | 50.04255 | 6.13041 | 23761 ft | 436 kts | 359° |
| 2026-05-06 09:50 | 50.07275 | 6.13080 | 23151 ft | 433 kts | 359° |
| 2026-05-06 09:50 | 50.10271 | 6.13109 | 22529 ft | 428 kts | 359° |
| 2026-05-06 09:50 | 50.13226 | 6.13132 | 21952 ft | 422 kts | 359° |
| 2026-05-06 09:51 | 50.16141 | 6.13150 | 21367 ft | 417 kts | 359° |
| 2026-05-06 09:51 | 50.19023 | 6.13165 | 20805 ft | 412 kts | 359° |
| 2026-05-06 09:51 | 50.21875 | 6.13179 | 20232 ft | 408 kts | 359° |
| 2026-05-06 09:51 | 50.24697 | 6.13194 | 19655 ft | 404 kts | 359° |
| 2026-05-06 09:52 | 50.27490 | 6.13331 | 19093 ft | 401 kts | 5° |
| 2026-05-06 09:52 | 50.30193 | 6.14271 | 18535 ft | 398 kts | 19° |
| 2026-05-06 09:52 | 50.32698 | 6.16084 | 17940 ft | 395 kts | 28° |
| 2026-05-06 09:52 | 50.35065 | 6.18228 | 17351 ft | 391 kts | 32° |
| 2026-05-06 09:53 | 50.37341 | 6.20524 | 16794 ft | 387 kts | 33° |
| 2026-05-06 09:53 | 50.39553 | 6.22863 | 16248 ft | 382 kts | 34° |
| 2026-05-06 09:53 | 50.41738 | 6.25199 | 15704 ft | 378 kts | 34° |
| 2026-05-06 09:53 | 50.43901 | 6.27499 | 15166 ft | 374 kts | 33° |
| 2026-05-06 09:54 | 50.46048 | 6.29761 | 14631 ft | 370 kts | 33° |
| 2026-05-06 09:54 | 50.48179 | 6.31987 | 14093 ft | 366 kts | 33° |
| 2026-05-06 09:54 | 50.50293 | 6.34174 | 13573 ft | 362 kts | 32° |
| 2026-05-06 09:54 | 50.52426 | 6.36236 | 13023 ft | 357 kts | 30° |
| 2026-05-06 09:55 | 50.54558 | 6.38180 | 12512 ft | 352 kts | 29° |
| 2026-05-06 09:55 | 50.56683 | 6.40077 | 12015 ft | 349 kts | 28° |
| 2026-05-06 09:55 | 50.58792 | 6.41960 | 11492 ft | 348 kts | 29° |
| 2026-05-06 09:55 | 50.60886 | 6.43846 | 11018 ft | 346 kts | 29° |
| 2026-05-06 09:56 | 50.62933 | 6.45712 | 10796 ft | 332 kts | 29° |
| 2026-05-06 09:56 | 50.64882 | 6.47503 | 10692 ft | 316 kts | 29° |
| 2026-05-06 09:56 | 50.66736 | 6.49217 | 10578 ft | 302 kts | 30° |
| 2026-05-06 09:56 | 50.68508 | 6.50858 | 10457 ft | 289 kts | 29° |
| 2026-05-06 09:57 | 50.70213 | 6.52440 | 10364 ft | 282 kts | 29° |
| 2026-05-06 09:57 | 50.71901 | 6.54007 | 10049 ft | 280 kts | 29° |
| 2026-05-06 09:57 | 50.73574 | 6.55559 | 9747 ft | 278 kts | 29° |
| 2026-05-06 09:57 | 50.75291 | 6.57151 | 9488 ft | 296 kts | 30° |
| 2026-05-06 09:58 | 50.77088 | 6.58818 | 9277 ft | 301 kts | 30° |
| 2026-05-06 09:58 | 50.78882 | 6.60487 | 8924 ft | 299 kts | 30° |
| 2026-05-06 09:58 | 50.80673 | 6.62151 | 8462 ft | 297 kts | 30° |
| 2026-05-06 09:58 | 50.82532 | 6.63389 | 8146 ft | 293 kts | 14° |
| 2026-05-06 09:59 | 50.84502 | 6.64146 | 7812 ft | 290 kts | 10° |
| 2026-05-06 09:59 | 50.86488 | 6.64697 | 7505 ft | 288 kts | 7° |
| 2026-05-06 09:59 | 50.88469 | 6.65131 | 7187 ft | 287 kts | 6° |
| 2026-05-06 09:59 | 50.90441 | 6.65515 | 6861 ft | 285 kts | 5° |
| 2026-05-06 10:00 | 50.92405 | 6.65889 | 6554 ft | 283 kts | 6° |
| 2026-05-06 10:00 | 50.94339 | 6.66266 | 6327 ft | 275 kts | 6° |
| 2026-05-06 10:00 | 50.96200 | 6.66644 | 6162 ft | 264 kts | 6° |
| 2026-05-06 10:00 | 50.97388 | 6.66891 | 6040 ft | 258 kts | 6° |
| 2026-05-06 10:01 | 50.99174 | 6.67269 | 5771 ft | 252 kts | 6° |
| 2026-05-06 10:01 | 51.00875 | 6.67560 | 5290 ft | 248 kts | 360° |
| 2026-05-06 10:01 | 51.02559 | 6.67211 | 4901 ft | 242 kts | 341° |
| 2026-05-06 10:01 | 51.04082 | 6.66133 | 4612 ft | 238 kts | 330° |
| 2026-05-06 10:02 | 51.05509 | 6.64856 | 4455 ft | 230 kts | 329° |
| 2026-05-06 10:02 | 51.06853 | 6.63607 | 4428 ft | 217 kts | 329° |
| 2026-05-06 10:02 | 51.08111 | 6.62423 | 4348 ft | 201 kts | 330° |
| 2026-05-06 10:02 | 51.09253 | 6.61342 | 4271 ft | 184 kts | 330° |
| 2026-05-06 10:03 | 51.10348 | 6.60303 | 4198 ft | 183 kts | 329° |
| 2026-05-06 10:03 | 51.11435 | 6.59271 | 4094 ft | 181 kts | 329° |
| 2026-05-06 10:03 | 51.12513 | 6.58250 | 4026 ft | 180 kts | 329° |
| 2026-05-06 10:03 | 51.13590 | 6.57227 | 3949 ft | 180 kts | 329° |
| 2026-05-06 10:04 | 51.14635 | 6.56229 | 3889 ft | 168 kts | 329° |
| 2026-05-06 10:04 | 51.15603 | 6.55305 | 3797 ft | 160 kts | 330° |
| 2026-05-06 10:04 | 51.16577 | 6.54478 | 3642 ft | 158 kts | 340° |
| 2026-05-06 10:04 | 51.17653 | 6.54547 | 3547 ft | 162 kts | 25° |
| 2026-05-06 10:05 | 51.18577 | 6.55564 | 3364 ft | 163 kts | 42° |
| 2026-05-06 10:05 | 51.19258 | 6.57002 | 3123 ft | 162 kts | 53° |
| 2026-05-06 10:05 | 51.19939 | 6.58434 | 2865 ft | 162 kts | 49° |
| 2026-05-06 10:05 | 51.20627 | 6.59844 | 2632 ft | 161 kts | 50° |
| 2026-05-06 10:06 | 51.21302 | 6.61257 | 2411 ft | 159 kts | 50° |
| 2026-05-06 10:06 | 51.21971 | 6.62657 | 2196 ft | 158 kts | 50° |
| 2026-05-06 10:06 | 51.22632 | 6.64040 | 1959 ft | 155 kts | 49° |
| 2026-05-06 10:06 | 51.23290 | 6.65415 | 1767 ft | 157 kts | 50° |
| 2026-05-06 10:07 | 51.23951 | 6.66801 | 1529 ft | 156 kts | 50° |
| 2026-05-06 10:07 | 51.24587 | 6.68132 | 1341 ft | 145 kts | 50° |
| 2026-05-06 10:07 | 51.25173 | 6.69361 | 1143 ft | 134 kts | 49° |
| 2026-05-06 10:07 | 51.25724 | 6.70516 | 958 ft | 127 kts | 50° |
| 2026-05-06 10:08 | 51.26251 | 6.71621 | 783 ft | 124 kts | 49° |
| 2026-05-06 10:08 | 51.26776 | 6.72721 | 610 ft | 124 kts | 50° |
| 2026-05-06 10:08 | 51.27293 | 6.73809 | 427 ft | 123 kts | 49° |
| 2026-05-06 10:08 | 51.27805 | 6.74911 | 299 ft | 125 kts | 49° |
| 2026-05-06 10:09 | 51.28340 | 6.75990 | 154 ft | 122 kts | 53° |
| 2026-05-06 10:09 | 51.28797 | 6.76952 | 134 ft | 90 kts | 52° |
| 2026-05-06 10:09 | 51.29090 | 6.77569 | 136 ft | 50 kts | 53° |
| 2026-05-06 10:09 | 51.29264 | 6.77931 | 142 ft | 37 kts | 52° |
| 2026-05-06 10:10 | 51.29276 | 6.78149 | 144 ft | 18 kts | 130° |
| 2026-05-06 10:10 | 51.29177 | 6.78194 | 142 ft | 13 kts | 202° |
| 2026-05-06 10:10 | 51.29117 | 6.78092 | 139 ft | 14 kts | 231° |
| 2026-05-06 10:10 | 51.29050 | 6.77957 | 136 ft | 17 kts | 231° |
| 2026-05-06 10:11 | 51.28979 | 6.77807 | 136 ft | 17 kts | 234° |
| 2026-05-06 10:11 | 51.28908 | 6.77652 | 136 ft | 18 kts | 233° |
| 2026-05-06 10:11 | 51.28832 | 6.77493 | 136 ft | 18 kts | 232° |
| 2026-05-06 10:11 | 51.28755 | 6.77333 | 136 ft | 18 kts | 232° |
| 2026-05-06 10:12 | 51.28677 | 6.77173 | 136 ft | 18 kts | 233° |
| 2026-05-06 10:12 | 51.28605 | 6.77020 | 135 ft | 14 kts | 233° |
| 2026-05-06 10:12 | 51.28554 | 6.76913 | 135 ft | 12 kts | 232° |
| 2026-05-06 10:12 | 51.28505 | 6.76812 | 128 ft | 11 kts | 232° |
| 2026-05-06 10:13 | 51.28459 | 6.76719 | 123 ft | 9 kts | 228° |
| 2026-05-06 10:13 | 51.28432 | 6.76697 | 123 ft | 3 kts | 193° |
| 2026-05-06 10:13 | 51.28383 | 6.76716 | 123 ft | 10 kts | 159° |
| 2026-05-06 10:13 | 51.28316 | 6.76726 | 129 ft | 6 kts | 189° |
| 2026-05-06 10:14 | 51.28286 | 6.76710 | 130 ft | 5 kts | 199° |
| 2026-05-06 10:14 | 51.28268 | 6.76700 | 126 ft | 2 kts | 200° |
| 2026-05-06 10:14 | 51.28262 | 6.76697 | 127 ft | 0 kts | 200° |